Time;durP1;ratioP1;P1;durP2;ratioP2;P2;SDS_P1;SDS_P2;PMS_P1;PMS_P2;Temp;Humidity;BMP_temperature;BMP_pressure;BME280_temperature;BME280_humidity;BME280_pressure;Samples;Min_cycle;Max_cycle;Signal;HPM_P1;HPM_P2
2023/10/29 01:10:18;;;;;;;18.27;15.43;;;17.50;99.90;;;;;;4555238;19;20388;-78
2023/10/29 01:11:53;;;;;;;17.65;14.73;;;17.50;99.90;;;;;;4593963;19;20006;-78
2023/10/29 01:13:27;;;;;;;17.85;14.65;;;17.50;99.90;;;;;;4593407;19;20019;-78
2023/10/29 01:15:01;;;;;;;17.80;14.85;;;17.40;99.90;;;;;;4593892;19;20015;-78
2023/10/29 01:16:38;;;;;;;19.08;15.85;;;17.40;99.90;;;;;;4593598;19;20007;-78
2023/10/29 01:18:12;;;;;;;17.48;14.48;;;17.50;99.90;;;;;;4593567;19;19998;-78
2023/10/29 01:19:47;;;;;;;17.85;15.20;;;17.40;99.90;;;;;;4593437;19;20471;-78
2023/10/29 01:21:22;;;;;;;16.98;14.38;;;17.40;99.90;;;;;;4592560;19;20013;-78
2023/10/29 01:22:57;;;;;;;17.70;14.73;;;17.40;99.90;;;;;;4593270;19;20014;-78
2023/10/29 01:24:30;;;;;;;17.42;14.48;;;17.40;99.90;;;;;;4591885;19;20445;-78
2023/10/29 01:26:06;;;;;;;18.08;14.68;;;17.40;99.90;;;;;;4593091;19;19998;-78
2023/10/29 01:27:40;;;;;;;18.15;14.90;;;17.40;99.90;;;;;;4593530;19;20003;-78
2023/10/29 01:29:14;;;;;;;16.40;14.25;;;17.40;99.90;;;;;;4593356;19;20009;-78
2023/10/29 01:30:49;;;;;;;16.88;14.55;;;17.40;99.90;;;;;;4592832;19;20013;-78
2023/10/29 01:32:23;;;;;;;17.73;14.77;;;17.40;99.90;;;;;;4593363;19;20424;-78
2023/10/29 01:33:57;;;;;;;16.45;14.50;;;17.40;99.90;;;;;;4593425;19;20452;-78
2023/10/29 01:35:34;;;;;;;16.70;13.77;;;17.40;99.90;;;;;;4593359;19;20006;-78
2023/10/29 01:37:08;;;;;;;16.80;14.27;;;17.40;99.90;;;;;;4593144;19;20325;-78
2023/10/29 01:38:43;;;;;;;16.65;14.27;;;17.40;99.90;;;;;;4592871;19;20022;-76
2023/10/29 01:40:18;;;;;;;15.52;13.77;;;17.40;99.90;;;;;;4592734;19;20028;-78
2023/10/29 01:41:55;;;;;;;16.95;13.68;;;17.40;99.90;;;;;;4592349;19;20444;-78
2023/10/29 01:43:30;;;;;;;15.52;13.77;;;17.40;99.90;;;;;;4593237;19;20007;-78
2023/10/29 01:45:07;;;;;;;18.25;14.50;;;17.40;99.90;;;;;;4593198;19;20006;-76
2023/10/29 01:46:41;;;;;;;17.48;13.95;;;17.40;99.90;;;;;;4592955;19;20006;-78
2023/10/29 01:48:16;;;;;;;16.10;13.80;;;17.40;99.90;;;;;;4593090;19;20010;-78
2023/10/29 01:49:51;;;;;;;18.10;15.40;;;17.40;99.90;;;;;;4593191;19;20105;-78
2023/10/29 01:51:25;;;;;;;18.02;14.68;;;17.40;99.90;;;;;;4591743;19;20008;-78
2023/10/29 01:52:59;;;;;;;17.45;14.05;;;17.40;99.90;;;;;;4592753;19;19999;-78
2023/10/29 01:54:34;;;;;;;17.05;13.88;;;17.40;99.90;;;;;;4593056;19;20010;-78
2023/10/29 01:56:10;;;;;;;17.02;14.70;;;17.40;99.90;;;;;;4592946;19;20005;-78
2023/10/29 01:57:46;;;;;;;16.38;13.70;;;17.40;99.90;;;;;;4591639;19;20010;-78
2023/10/29 01:59:21;;;;;;;17.02;14.40;;;17.40;99.90;;;;;;4591486;19;20058;-78
2023/10/29 02:00:55;;;;;;;17.15;14.82;;;17.40;99.90;;;;;;4591428;19;20507;-78
2023/10/29 02:02:29;;;;;;;16.33;14.45;;;17.30;99.90;;;;;;4592608;19;20066;-78
2023/10/29 02:04:04;;;;;;;16.00;13.70;;;17.40;99.90;;;;;;4592806;19;20005;-78
2023/10/29 02:05:39;;;;;;;16.85;14.23;;;17.30;99.90;;;;;;4591042;19;20010;-78
2023/10/29 02:07:13;;;;;;;18.60;15.63;;;17.30;99.90;;;;;;4592362;19;20003;-79
2023/10/29 02:08:48;;;;;;;17.58;15.60;;;17.40;99.90;;;;;;4592794;19;20033;-79
2023/10/29 02:10:22;;;;;;;17.40;14.63;;;17.40;99.90;;;;;;4591932;19;20002;-78
2023/10/29 02:11:57;;;;;;;17.40;15.10;;;17.40;99.90;;;;;;4592377;19;20366;-78
2023/10/29 02:13:33;;;;;;;18.80;15.15;;;17.40;99.90;;;;;;4592357;19;19998;-78
2023/10/29 02:15:07;;;;;;;22.30;16.50;;;17.40;99.90;;;;;;4592627;19;20025;-78
2023/10/29 02:16:41;;;;;;;19.98;15.57;;;17.40;99.90;;;;;;4592144;19;20037;-78
2023/10/29 02:18:17;;;;;;;23.55;17.48;;;17.40;99.90;;;;;;4592792;19;20007;-78
2023/10/29 02:19:55;;;;;;;23.80;19.35;;;17.30;99.90;;;;;;4592535;19;20006;-78
2023/10/29 02:21:29;;;;;;;23.92;19.13;;;17.30;99.90;;;;;;4591135;19;20033;-78
2023/10/29 02:23:05;;;;;;;19.60;16.15;;;17.40;99.90;;;;;;4592741;19;20443;-78
2023/10/29 02:24:40;;;;;;;17.98;14.93;;;17.30;99.90;;;;;;4592138;19;20028;-78
2023/10/29 02:26:14;;;;;;;20.92;15.10;;;17.40;99.90;;;;;;4592394;19;20414;-78
2023/10/29 02:27:49;;;;;;;17.98;15.35;;;17.30;99.90;;;;;;4591080;19;20433;-79
2023/10/29 02:29:23;;;;;;;19.52;16.40;;;17.30;99.90;;;;;;4591695;19;20426;-78
2023/10/29 02:30:57;;;;;;;18.20;15.40;;;17.30;99.90;;;;;;4591347;19;20310;-78
2023/10/29 02:32:32;;;;;;;16.65;14.80;;;17.30;99.90;;;;;;4592049;19;20002;-78
2023/10/29 02:34:07;;;;;;;18.17;15.05;;;17.30;99.90;;;;;;4591998;19;20002;-78
2023/10/29 02:35:42;;;;;;;19.10;16.60;;;17.30;99.90;;;;;;4590463;19;20504;-78
2023/10/29 02:37:18;;;;;;;16.13;14.30;;;17.30;99.90;;;;;;4591946;19;20010;-78
2023/10/29 02:38:52;;;;;;;16.60;14.13;;;17.30;99.90;;;;;;4591933;19;20085;-78
2023/10/29 02:40:26;;;;;;;16.30;14.35;;;17.30;99.90;;;;;;4591633;19;20015;-78
2023/10/29 02:42:02;;;;;;;17.27;13.60;;;17.30;99.90;;;;;;4590898;19;20006;-78
2023/10/29 02:43:38;;;;;;;16.45;13.57;;;17.30;99.90;;;;;;4590577;19;20073;-77
2023/10/29 02:45:12;;;;;;;17.65;14.82;;;17.30;99.90;;;;;;4590507;19;20007;-78
2023/10/29 02:46:49;;;;;;;16.95;14.57;;;17.30;99.90;;;;;;4591786;19;20006;-78
2023/10/29 02:48:24;;;;;;;18.00;14.57;;;17.30;99.90;;;;;;4591765;19;20002;-78
2023/10/29 02:49:58;;;;;;;16.05;14.35;;;17.30;99.90;;;;;;4592116;19;20033;-78
2023/10/29 02:51:34;;;;;;;17.48;15.23;;;17.30;99.90;;;;;;4589162;19;20010;-79
2023/10/29 02:53:08;;;;;;;17.58;15.10;;;17.30;99.90;;;;;;4591646;19;20295;-78
2023/10/29 02:54:42;;;;;;;16.60;14.48;;;17.30;99.90;;;;;;4591954;19;19999;-78
2023/10/29 02:56:18;;;;;;;17.60;15.60;;;17.30;99.90;;;;;;4591798;19;20006;-78
2023/10/29 02:57:53;;;;;;;19.23;15.65;;;17.30;99.90;;;;;;4591558;19;20010;-78
2023/10/29 02:59:28;;;;;;;16.33;13.82;;;17.30;99.90;;;;;;4591785;19;20464;-78
2023/10/29 03:01:10;;;;;;;17.48;14.30;;;17.30;99.90;;;;;;4590579;19;20014;-78
2023/10/29 03:02:44;;;;;;;17.17;14.45;;;17.30;99.90;;;;;;4590193;19;20003;-78
2023/10/29 03:04:20;;;;;;;16.67;14.70;;;17.30;99.90;;;;;;4592002;19;20333;-78
2023/10/29 03:05:56;;;;;;;18.42;14.82;;;17.30;99.90;;;;;;4595182;19;20013;-78
2023/10/29 03:07:30;;;;;;;17.25;15.43;;;17.30;99.90;;;;;;4596109;19;19998;-78
2023/10/29 03:09:05;;;;;;;18.38;14.95;;;17.30;99.90;;;;;;4596145;19;20452;-78
2023/10/29 03:10:41;;;;;;;17.80;15.40;;;17.30;99.90;;;;;;4595387;19;20074;-78
2023/10/29 03:12:15;;;;;;;19.17;16.50;;;17.30;99.90;;;;;;4596413;19;20011;-78
2023/10/29 03:13:49;;;;;;;17.27;15.05;;;17.30;99.90;;;;;;4596037;19;20002;-78
2023/10/29 03:15:27;;;;;;;18.70;15.52;;;17.30;99.90;;;;;;4596053;19;20014;-78
2023/10/29 03:17:01;;;;;;;18.10;14.93;;;17.30;99.90;;;;;;4594882;19;20006;-78
2023/10/29 03:18:37;;;;;;;18.38;15.88;;;17.30;99.90;;;;;;4595624;19;20020;-78
2023/10/29 03:20:12;;;;;;;17.95;14.82;;;17.30;99.90;;;;;;4595749;19;20069;-78
2023/10/29 03:21:49;;;;;;;18.55;15.68;;;17.30;99.90;;;;;;4594822;19;20025;-78
2023/10/29 03:23:24;;;;;;;18.23;15.77;;;17.30;99.90;;;;;;4596148;19;20021;-78
2023/10/29 03:25:00;;;;;;;18.67;15.35;;;17.30;99.90;;;;;;4595921;19;20023;-76
2023/10/29 03:26:34;;;;;;;17.83;14.82;;;17.30;99.90;;;;;;4596121;19;20026;-78
2023/10/29 03:28:08;;;;;;;18.20;16.27;;;17.30;99.90;;;;;;4596021;19;19998;-78
2023/10/29 03:29:45;;;;;;;20.05;16.85;;;17.30;99.90;;;;;;4594438;19;20007;-78
2023/10/29 03:31:19;;;;;;;18.92;16.15;;;17.30;99.90;;;;;;4593895;19;20007;-78
2023/10/29 03:32:52;;;;;;;20.98;16.33;;;17.30;99.90;;;;;;4595907;19;20044;-78
2023/10/29 03:34:27;;;;;;;19.90;15.80;;;17.30;99.90;;;;;;4595620;19;20019;-78
2023/10/29 03:36:07;;;;;;;19.08;15.85;;;17.30;99.90;;;;;;4595581;19;20031;-78
2023/10/29 03:37:41;;;;;;;21.13;16.42;;;17.30;99.90;;;;;;4595669;19;19998;-78
2023/10/29 03:39:17;;;;;;;20.70;16.52;;;17.30;99.90;;;;;;4595819;19;20007;-78
2023/10/29 03:40:50;;;;;;;20.50;15.95;;;17.30;99.90;;;;;;4594838;19;20003;-78
2023/10/29 03:42:24;;;;;;;21.77;16.88;;;17.30;99.90;;;;;;4594008;19;20011;-78
2023/10/29 03:43:59;;;;;;;20.58;16.92;;;17.30;99.90;;;;;;4595875;19;20017;-78
2023/10/29 03:45:33;;;;;;;21.40;18.20;;;17.30;99.90;;;;;;4595605;19;20007;-78
2023/10/29 03:47:07;;;;;;;21.17;17.70;;;17.30;99.90;;;;;;4594042;19;20030;-78
2023/10/29 03:48:44;;;;;;;21.48;17.98;;;17.30;99.90;;;;;;4594898;19;20007;-78
2023/10/29 03:50:18;;;;;;;21.67;17.80;;;17.30;99.90;;;;;;4595013;19;20014;-78
2023/10/29 03:51:52;;;;;;;22.20;17.33;;;17.20;99.90;;;;;;4595533;19;19998;-78
2023/10/29 03:53:27;;;;;;;20.60;16.85;;;17.30;99.90;;;;;;4595543;19;20003;-78
2023/10/29 03:55:01;;;;;;;21.05;17.65;;;17.30;99.90;;;;;;4593892;19;19998;-78
2023/10/29 03:56:35;;;;;;;24.05;18.48;;;17.30;99.90;;;;;;4594856;19;19994;-78
2023/10/29 03:58:10;;;;;;;21.65;18.10;;;17.30;99.90;;;;;;4595363;19;20315;-78
2023/10/29 03:59:44;;;;;;;22.25;18.45;;;17.30;99.90;;;;;;4595101;19;20008;-78
2023/10/29 04:01:18;;;;;;;23.30;17.50;;;17.30;99.90;;;;;;4593586;19;20413;-78
2023/10/29 04:02:53;;;;;;;23.05;17.83;;;17.30;99.90;;;;;;4595031;19;20433;-78
2023/10/29 04:04:27;;;;;;;21.13;17.15;;;17.20;99.90;;;;;;4593519;19;20334;-78
2023/10/29 04:06:01;;;;;;;21.85;16.42;;;17.30;99.90;;;;;;4594890;19;20006;-78
2023/10/29 04:07:38;;;;;;;22.67;16.45;;;17.30;99.90;;;;;;4593451;19;20320;-78
2023/10/29 04:09:12;;;;;;;21.83;17.30;;;17.30;99.90;;;;;;4594881;19;20003;-78
2023/10/29 04:10:46;;;;;;;22.45;17.33;;;17.20;99.90;;;;;;4593808;19;20015;-78
2023/10/29 04:12:22;;;;;;;24.27;18.13;;;17.20;99.90;;;;;;4595157;19;20006;-78
2023/10/29 04:13:56;;;;;;;24.23;18.30;;;17.20;99.90;;;;;;4595069;19;20002;-78
2023/10/29 04:15:30;;;;;;;23.30;17.85;;;17.20;99.90;;;;;;4594201;19;20010;-78
2023/10/29 04:17:06;;;;;;;22.38;17.67;;;17.30;99.90;;;;;;4591868;19;20342;-78
2023/10/29 04:18:41;;;;;;;25.02;18.73;;;17.30;99.90;;;;;;4594511;19;20002;-78
2023/10/29 04:20:14;;;;;;;23.08;18.58;;;17.20;99.90;;;;;;4594274;19;20010;-78
2023/10/29 04:21:51;;;;;;;21.23;17.83;;;17.30;99.90;;;;;;4593736;19;20027;-76
2023/10/29 04:23:25;;;;;;;22.75;18.35;;;17.20;99.90;;;;;;4593339;19;20005;-78
2023/10/29 04:24:59;;;;;;;22.63;19.10;;;17.20;99.90;;;;;;4594176;19;20015;-78
2023/10/29 04:26:35;;;;;;;23.25;19.17;;;17.30;99.90;;;;;;4594796;19;20417;-78
2023/10/29 04:28:09;;;;;;;23.67;18.48;;;17.20;99.90;;;;;;4594763;19;20002;-78
2023/10/29 04:29:42;;;;;;;22.45;17.70;;;17.30;99.90;;;;;;4594512;19;20027;-78
2023/10/29 04:31:17;;;;;;;23.65;18.55;;;17.20;99.90;;;;;;4593260;19;20007;-78
2023/10/29 04:32:51;;;;;;;23.80;17.45;;;17.20;99.90;;;;;;4594382;19;20029;-78
2023/10/29 04:34:25;;;;;;;23.20;18.10;;;17.20;99.90;;;;;;4594703;19;19999;-78
2023/10/29 04:36:01;;;;;;;24.90;20.00;;;17.30;99.90;;;;;;4594332;19;20010;-79
2023/10/29 04:37:36;;;;;;;22.77;17.25;;;17.30;99.90;;;;;;4592802;19;20468;-77
2023/10/29 04:39:10;;;;;;;23.55;18.02;;;17.20;99.90;;;;;;4594195;19;20022;-77
2023/10/29 04:40:47;;;;;;;23.52;18.45;;;17.30;99.90;;;;;;4593583;19;20010;-77
2023/10/29 04:42:21;;;;;;;26.13;18.60;;;17.30;99.90;;;;;;4592797;19;20002;-77
2023/10/29 04:43:55;;;;;;;24.50;18.48;;;17.30;99.90;;;;;;4594181;19;20081;-80
2023/10/29 04:45:30;;;;;;;23.50;18.20;;;17.30;99.90;;;;;;4594214;19;20010;-78
2023/10/29 04:47:05;;;;;;;23.73;18.92;;;17.40;99.90;;;;;;4594120;19;19998;-77
2023/10/29 04:48:38;;;;;;;25.92;18.60;;;17.40;99.90;;;;;;4594306;19;20061;-76
2023/10/29 04:50:14;;;;;;;23.55;18.83;;;17.50;99.90;;;;;;4593891;19;20007;-78
2023/10/29 04:51:51;;;;;;;26.08;18.20;;;17.50;99.90;;;;;;4594277;19;20085;-77
2023/10/29 04:53:25;;;;;;;26.00;19.15;;;17.50;99.90;;;;;;4594198;19;20002;-77
2023/10/29 04:55:01;;;;;;;25.63;18.58;;;17.60;99.90;;;;;;4594104;19;19998;-78
2023/10/29 04:56:35;;;;;;;24.02;17.92;;;17.60;99.90;;;;;;4592673;19;19998;-79
2023/10/29 04:58:08;;;;;;;27.75;20.40;;;17.60;99.90;;;;;;4593531;19;20029;-78
2023/10/29 04:59:43;;;;;;;26.25;19.38;;;17.60;99.90;;;;;;4594137;19;20006;-78
2023/10/29 05:01:19;;;;;;;24.88;18.63;;;17.70;99.90;;;;;;4592951;19;20014;-79
2023/10/29 05:02:53;;;;;;;26.27;18.45;;;17.70;99.90;;;;;;4594101;19;19998;-79
2023/10/29 05:04:30;;;;;;;24.70;18.48;;;17.70;99.90;;;;;;4593893;19;20003;-79
2023/10/29 05:06:04;;;;;;;25.67;19.42;;;17.70;99.90;;;;;;4593703;19;20006;-82
2023/10/29 05:07:38;;;;;;;25.88;19.23;;;17.70;99.90;;;;;;4593746;19;20001;-83
2023/10/29 05:09:13;;;;;;;25.70;20.20;;;17.80;99.90;;;;;;4593753;19;20006;-81
2023/10/29 05:10:47;;;;;;;24.30;18.40;;;17.70;99.90;;;;;;4592975;19;20032;-81
2023/10/29 05:12:21;;;;;;;27.45;19.35;;;17.80;99.90;;;;;;4593522;19;20043;-80
2023/10/29 05:13:57;;;;;;;25.48;18.52;;;17.70;99.90;;;;;;4593620;19;20011;-83
2023/10/29 05:15:30;;;;;;;24.45;17.80;;;17.80;99.90;;;;;;4593530;19;20003;-83
2023/10/29 05:17:04;;;;;;;25.73;19.55;;;17.80;99.90;;;;;;4593448;19;20444;-81
2023/10/29 05:18:41;;;;;;;26.67;20.20;;;17.80;99.90;;;;;;4593564;19;20012;-81
2023/10/29 05:20:15;;;;;;;24.17;18.45;;;17.80;99.90;;;;;;4593398;19;20006;-85
2023/10/29 05:21:50;;;;;;;26.80;17.73;;;17.80;99.90;;;;;;4592945;19;20307;-83
2023/10/29 05:23:26;;;;;;;23.88;17.75;;;17.80;99.90;;;;;;4593772;19;20027;-82
2023/10/29 05:25:02;;;;;;;24.05;17.85;;;17.80;99.90;;;;;;4593398;19;20013;-83
2023/10/29 05:26:39;;;;;;;23.58;18.25;;;17.70;99.90;;;;;;4592311;19;20119;-81
2023/10/29 05:28:14;;;;;;;23.20;17.70;;;17.70;99.90;;;;;;4592133;19;20014;-84
2023/10/29 05:29:48;;;;;;;24.60;19.00;;;17.70;99.90;;;;;;4591933;19;20007;-84
2023/10/29 05:31:22;;;;;;;24.70;18.48;;;17.70;99.90;;;;;;4591817;19;20496;-84
2023/10/29 05:32:57;;;;;;;29.13;18.67;;;17.70;99.90;;;;;;4593520;19;20496;-86
2023/10/29 05:34:31;;;;;;;24.88;18.05;;;17.70;99.90;;;;;;4592162;19;20485;-85
2023/10/29 05:36:05;;;;;;;23.85;18.05;;;17.70;99.90;;;;;;4592796;19;20322;-85
2023/10/29 05:37:40;;;;;;;23.88;18.42;;;17.70;99.90;;;;;;4593187;19;20007;-84
2023/10/29 05:39:17;;;;;;;27.00;19.00;;;17.70;99.90;;;;;;4593075;19;20022;-84
2023/10/29 05:40:51;;;;;;;25.98;18.40;;;17.70;99.90;;;;;;4592662;19;20029;-83
2023/10/29 05:42:27;;;;;;;27.10;18.35;;;17.70;99.90;;;;;;4591909;19;20028;-83
2023/10/29 05:44:01;;;;;;;27.58;18.95;;;17.70;99.90;;;;;;4591595;19;20002;-83
2023/10/29 05:45:36;;;;;;;26.52;18.30;;;17.70;99.90;;;;;;4592486;19;20460;-83
2023/10/29 05:47:11;;;;;;;27.92;18.77;;;17.70;99.90;;;;;;4592990;19;20003;-81
2023/10/29 05:48:45;;;;;;;28.13;19.05;;;17.60;99.90;;;;;;4592824;19;20365;-84
2023/10/29 05:50:19;;;;;;;27.83;20.00;;;17.60;99.90;;;;;;4592575;19;20005;-79
2023/10/29 05:51:54;;;;;;;30.20;19.70;;;17.70;99.90;;;;;;4592838;19;20006;-78
2023/10/29 05:53:29;;;;;;;27.48;19.38;;;17.60;99.90;;;;;;4592765;19;20007;-79
2023/10/29 05:55:03;;;;;;;24.27;17.88;;;17.60;99.90;;;;;;4591720;19;20074;-79
2023/10/29 05:56:40;;;;;;;28.15;19.40;;;17.60;99.90;;;;;;4591696;19;20417;-78
2023/10/29 05:58:15;;;;;;;26.50;17.90;;;17.70;99.90;;;;;;4592335;19;20006;-79
2023/10/29 05:59:49;;;;;;;29.50;19.92;;;17.70;99.90;;;;;;4592938;19;20005;-78
2023/10/29 06:01:24;;;;;;;28.17;19.48;;;17.70;99.90;;;;;;4591731;19;20342;-77
2023/10/29 06:02:57;;;;;;;29.88;19.75;;;17.80;99.90;;;;;;4592476;19;20007;-76
2023/10/29 06:04:31;;;;;;;29.65;20.42;;;17.80;99.90;;;;;;4592783;19;20421;-81
2023/10/29 06:06:07;;;;;;;28.50;19.85;;;17.80;99.90;;;;;;4592817;19;20313;-80
2023/10/29 06:07:44;;;;;;;27.42;18.63;;;17.90;99.90;;;;;;4592712;19;20006;-80
2023/10/29 06:09:18;;;;;;;28.65;19.40;;;17.90;99.90;;;;;;4591100;19;20007;-78
2023/10/29 06:10:54;;;;;;;29.77;19.98;;;17.90;99.90;;;;;;4591237;19;20027;-80
2023/10/29 06:12:28;;;;;;;28.10;18.65;;;17.90;99.90;;;;;;4592461;19;19999;-78
2023/10/29 06:14:02;;;;;;;27.98;19.08;;;17.90;99.90;;;;;;4592475;19;20010;-80
2023/10/29 06:15:38;;;;;;;27.50;20.00;;;18.00;99.90;;;;;;4592370;19;20007;-79
2023/10/29 06:17:12;;;;;;;29.80;19.58;;;17.90;99.90;;;;;;4592245;19;19998;-80
2023/10/29 06:18:46;;;;;;;30.65;20.13;;;17.90;99.90;;;;;;4590979;19;20006;-77
2023/10/29 06:20:22;;;;;;;31.52;20.83;;;17.90;99.90;;;;;;4590457;19;20007;-79
2023/10/29 06:21:56;;;;;;;29.00;20.58;;;17.90;99.90;;;;;;4591219;19;20002;-81
2023/10/29 06:23:30;;;;;;;29.00;20.73;;;18.00;99.90;;;;;;4592170;19;20003;-81
2023/10/29 06:25:05;;;;;;;32.22;21.17;;;17.90;99.90;;;;;;4590780;19;20409;-81
2023/10/29 06:26:39;;;;;;;30.20;20.88;;;17.90;99.90;;;;;;4591828;19;20005;-81
2023/10/29 06:28:13;;;;;;;29.98;20.67;;;18.00;99.90;;;;;;4592098;19;20003;-80
2023/10/29 06:29:48;;;;;;;30.20;22.50;;;18.10;99.90;;;;;;4592817;19;20438;-79
2023/10/29 06:31:29;;;;;;;31.15;23.10;;;18.10;99.90;;;;;;4590967;19;20006;-80
2023/10/29 06:33:03;;;;;;;33.05;21.98;;;18.30;99.90;;;;;;4590930;19;20015;-81
2023/10/29 06:34:39;;;;;;;31.48;21.30;;;18.40;99.90;;;;;;4592163;19;20305;-80
2023/10/29 06:36:13;;;;;;;32.45;21.92;;;18.50;99.90;;;;;;4590859;19;20430;-80
2023/10/29 06:37:47;;;;;;;28.13;21.05;;;18.50;99.90;;;;;;4591550;19;20003;-81
2023/10/29 06:39:22;;;;;;;31.52;20.70;;;18.50;99.90;;;;;;4592695;19;20078;-79
2023/10/29 06:40:56;;;;;;;31.02;21.90;;;18.50;99.90;;;;;;4595748;19;20006;-81
2023/10/29 06:42:30;;;;;;;28.98;19.38;;;18.60;99.90;;;;;;4594907;19;20317;-79
2023/10/29 06:44:06;;;;;;;28.40;20.85;;;18.60;99.90;;;;;;4596633;19;20022;-80
2023/10/29 06:45:42;;;;;;;26.95;19.45;;;18.60;99.90;;;;;;4596838;19;20453;-81
2023/10/29 06:47:18;;;;;;;29.00;19.23;;;18.60;99.90;;;;;;4596618;19;20012;-81
2023/10/29 06:48:53;;;;;;;28.60;20.02;;;18.60;99.90;;;;;;4596757;19;20303;-81
2023/10/29 06:50:27;;;;;;;27.17;20.00;;;18.60;99.90;;;;;;4596009;19;20085;-79
2023/10/29 06:52:04;;;;;;;25.38;17.80;;;18.60;99.90;;;;;;4596773;19;20074;-77
2023/10/29 06:53:40;;;;;;;28.23;19.80;;;18.80;99.90;;;;;;4596387;19;20010;-75
2023/10/29 06:55:14;;;;;;;27.65;18.77;;;18.90;99.90;;;;;;4595150;19;20002;-75
2023/10/29 06:56:48;;;;;;;28.30;20.10;;;18.80;99.90;;;;;;4594930;19;20002;-74
2023/10/29 06:58:24;;;;;;;27.33;18.73;;;18.80;99.90;;;;;;4595933;19;20010;-75
2023/10/29 07:00:00;;;;;;;28.45;19.73;;;18.70;99.90;;;;;;4596484;19;20003;-85
2023/10/29 07:01:34;;;;;;;27.55;19.88;;;18.70;99.90;;;;;;4592748;19;20017;-79
2023/10/29 07:03:10;;;;;;;27.25;18.65;;;18.60;99.90;;;;;;4595828;19;20007;-76
2023/10/29 07:04:44;;;;;;;26.40;19.58;;;18.60;99.90;;;;;;4595902;19;20033;-78
2023/10/29 07:06:18;;;;;;;26.85;19.50;;;18.70;99.90;;;;;;4596076;19;20011;-80
2023/10/29 07:07:55;;;;;;;29.40;20.13;;;18.60;99.90;;;;;;4596152;19;20007;-78
2023/10/29 07:09:29;;;;;;;29.00;21.80;;;18.50;99.90;;;;;;4595128;19;20006;-79
2023/10/29 07:11:03;;;;;;;27.08;20.08;;;18.40;99.90;;;;;;4594215;19;20027;-78
2023/10/29 07:12:39;;;;;;;29.63;19.90;;;18.40;99.90;;;;;;4596412;19;20007;-79
2023/10/29 07:14:13;;;;;;;29.55;20.13;;;18.30;99.90;;;;;;4595945;19;20018;-80
2023/10/29 07:15:47;;;;;;;27.10;21.23;;;18.30;99.90;;;;;;4594909;19;20450;-78
2023/10/29 07:17:22;;;;;;;33.80;21.30;;;18.30;99.90;;;;;;4595756;19;20034;-79
2023/10/29 07:18:55;;;;;;;28.60;20.88;;;18.30;99.90;;;;;;4596112;19;20013;-79
2023/10/29 07:20:29;;;;;;;28.83;21.33;;;18.20;99.90;;;;;;4595396;19;20062;-77
2023/10/29 07:22:06;;;;;;;29.83;20.75;;;18.20;99.90;;;;;;4594873;19;20302;-77
2023/10/29 07:23:40;;;;;;;30.98;22.00;;;18.20;99.90;;;;;;4594391;19;20003;-76
2023/10/29 07:25:15;;;;;;;29.35;21.33;;;18.20;99.90;;;;;;4595507;19;20003;-76
2023/10/29 07:26:51;;;;;;;29.15;21.13;;;18.10;99.90;;;;;;4594394;19;20025;-77
2023/10/29 07:28:25;;;;;;;29.70;22.88;;;18.10;99.90;;;;;;4595552;19;20089;-76
2023/10/29 07:29:59;;;;;;;30.17;23.83;;;17.80;99.90;;;;;;4595535;19;20055;-78
2023/10/29 07:31:34;;;;;;;28.58;22.60;;;17.30;99.90;;;;;;4592881;19;20327;-80
2023/10/29 07:33:17;;;;;;;30.13;24.73;;;17.00;99.90;;;;;;4595135;19;20014;-89
2023/10/29 07:34:51;;;;;;;41.03;28.20;;;16.70;99.90;;;;;;4594454;19;20006;-79
2023/10/29 07:36:26;;;;;;;35.65;25.27;;;16.50;99.90;;;;;;4595544;19;20078;-81
2023/10/29 07:38:00;;;;;;;31.60;23.20;;;16.30;99.90;;;;;;4594506;19;20006;-80
2023/10/29 07:39:34;;;;;;;36.70;25.35;;;16.20;99.90;;;;;;4595096;19;20006;-82
2023/10/29 07:41:12;;;;;;;34.92;26.77;;;16.00;99.90;;;;;;4592698;19;20010;-76
2023/10/29 07:42:49;;;;;;;34.35;25.17;;;16.00;99.90;;;;;;4595400;19;19998;-75
2023/10/29 07:44:26;;;;;;;37.15;27.02;;;15.90;99.90;;;;;;4595377;19;20006;-77
2023/10/29 07:46:05;;;;;;;36.00;26.70;;;15.80;99.90;;;;;;4595606;19;20014;-78
2023/10/29 07:47:44;;;;;;;37.75;26.88;;;15.70;99.90;;;;;;4594171;19;20022;-78
2023/10/29 07:49:18;;;;;;;36.08;26.40;;;15.70;99.90;;;;;;4595227;19;20010;-78
2023/10/29 07:50:53;;;;;;;37.35;28.77;;;15.60;99.90;;;;;;4594371;19;20412;-80
2023/10/29 07:52:27;;;;;;;35.58;27.40;;;15.50;99.90;;;;;;4595178;19;20006;-80
2023/10/29 07:54:01;;;;;;;33.35;26.42;;;15.50;99.90;;;;;;4595131;19;19999;-80
2023/10/29 07:55:36;;;;;;;30.13;23.42;;;15.50;99.90;;;;;;4595018;19;20007;-80
2023/10/29 07:57:11;;;;;;;31.95;23.50;;;15.40;99.90;;;;;;4593937;19;20006;-79
2023/10/29 07:58:46;;;;;;;32.67;23.85;;;15.40;99.90;;;;;;4594570;19;20015;-78
2023/10/29 08:00:22;;;;;;;28.67;21.95;;;15.40;99.90;;;;;;4593512;19;20010;-80
2023/10/29 08:01:56;;;;;;;31.25;24.23;;;15.30;99.90;;;;;;4593566;19;20054;-80
2023/10/29 08:03:30;;;;;;;32.47;25.05;;;15.30;99.90;;;;;;4594924;19;20002;-81
2023/10/29 08:05:06;;;;;;;31.00;24.48;;;15.30;99.90;;;;;;4593486;19;19999;-76
2023/10/29 08:06:40;;;;;;;30.38;24.70;;;15.30;99.90;;;;;;4594455;19;19998;-76
2023/10/29 08:08:13;;;;;;;28.60;23.25;;;15.30;99.90;;;;;;4594954;19;20010;-75
2023/10/29 08:09:48;;;;;;;30.98;24.48;;;15.40;99.90;;;;;;4594933;19;20007;-77
2023/10/29 08:11:23;;;;;;;30.88;24.73;;;15.40;99.90;;;;;;4593161;19;20299;-77
2023/10/29 08:12:58;;;;;;;28.95;24.17;;;15.50;99.90;;;;;;4594688;19;20070;-77
2023/10/29 08:14:33;;;;;;;32.42;25.05;;;15.50;99.90;;;;;;4594891;19;20005;-78
2023/10/29 08:16:08;;;;;;;32.40;25.70;;;15.50;99.90;;;;;;4594888;19;20006;-77
2023/10/29 08:17:42;;;;;;;32.42;24.67;;;15.50;99.90;;;;;;4594561;19;20003;-75
2023/10/29 08:19:17;;;;;;;32.10;23.38;;;15.50;99.90;;;;;;4594879;19;20150;-78
2023/10/29 08:20:50;;;;;;;32.45;25.23;;;15.50;99.90;;;;;;4593802;19;20002;-78
2023/10/29 08:22:25;;;;;;;29.10;23.70;;;15.50;99.90;;;;;;4593225;19;20006;-79
2023/10/29 08:24:01;;;;;;;29.70;24.08;;;15.50;99.90;;;;;;4593262;19;20028;-78
2023/10/29 08:25:39;;;;;;;27.63;21.70;;;15.50;99.90;;;;;;4594431;19;20002;-79
2023/10/29 08:27:13;;;;;;;29.70;25.77;;;15.50;99.90;;;;;;4594487;19;20007;-80
2023/10/29 08:28:48;;;;;;;30.35;25.20;;;15.50;99.90;;;;;;4594415;19;20024;-77
2023/10/29 08:30:22;;;;;;;27.30;22.48;;;15.50;99.90;;;;;;4593811;19;20446;-78
2023/10/29 08:31:56;;;;;;;27.52;22.95;;;15.50;99.90;;;;;;4594606;19;19999;-76
2023/10/29 08:33:31;;;;;;;30.25;24.05;;;15.50;99.90;;;;;;4594349;19;20091;-87
2023/10/29 08:35:07;;;;;;;27.70;23.40;;;15.40;99.90;;;;;;4592927;19;20002;-76
2023/10/29 08:36:43;;;;;;;28.38;23.00;;;15.50;99.90;;;;;;4592707;19;20482;-74
2023/10/29 08:38:20;;;;;;;25.73;22.67;;;15.40;99.90;;;;;;4594175;19;20002;-77
2023/10/29 08:39:57;;;;;;;27.70;23.70;;;15.40;99.90;;;;;;4592849;19;20063;-78
2023/10/29 08:41:31;;;;;;;25.50;22.55;;;15.40;99.90;;;;;;4591616;19;20033;-77
2023/10/29 08:43:08;;;;;;;25.35;20.90;;;15.40;99.90;;;;;;4593754;19;20010;-77
2023/10/29 08:44:41;;;;;;;27.98;22.27;;;15.40;99.90;;;;;;4594261;19;20006;-79
2023/10/29 08:46:16;;;;;;;26.88;21.77;;;15.40;99.90;;;;;;4594064;19;20418;-78
2023/10/29 08:47:51;;;;;;;27.00;22.48;;;15.40;99.90;;;;;;4594057;19;20459;-79
2023/10/29 08:49:25;;;;;;;25.85;22.60;;;15.30;99.90;;;;;;4593985;19;20066;-78
2023/10/29 08:50:59;;;;;;;25.02;21.88;;;15.40;99.90;;;;;;4591938;19;20313;-77
2023/10/29 08:52:34;;;;;;;31.02;24.02;;;15.40;99.90;;;;;;4593806;19;20007;-77
2023/10/29 08:54:08;;;;;;;30.77;25.40;;;15.40;99.90;;;;;;4592496;19;20018;-79
2023/10/29 08:55:42;;;;;;;29.40;25.50;;;15.30;99.90;;;;;;4593863;19;20021;-79
2023/10/29 08:57:18;;;;;;;25.83;23.05;;;15.30;99.90;;;;;;4594684;19;19999;-79
2023/10/29 08:58:52;;;;;;;31.38;26.00;;;15.40;99.90;;;;;;4592571;19;20000;-79
2023/10/29 09:00:28;;;;;;;29.55;24.77;;;15.40;99.90;;;;;;4593118;19;20014;-81
2023/10/29 09:02:04;;;;;;;30.02;25.63;;;15.30;99.90;;;;;;4589947;19;20011;-78
2023/10/29 09:03:37;;;;;;;30.23;24.95;;;15.30;99.90;;;;;;4593670;19;20009;-81
2023/10/29 09:05:11;;;;;;;29.42;24.40;;;15.40;99.90;;;;;;4593693;19;20333;-79
2023/10/29 09:06:47;;;;;;;29.95;23.70;;;15.50;99.90;;;;;;4594199;19;20009;-82
2023/10/29 09:08:21;;;;;;;27.23;22.65;;;15.60;99.90;;;;;;4593877;19;20283;-79
2023/10/29 09:09:55;;;;;;;28.65;24.13;;;15.70;99.90;;;;;;4592355;19;19998;-80
2023/10/29 09:11:30;;;;;;;30.88;25.63;;;15.80;99.90;;;;;;4590965;19;20445;-80